Home > Products > Valid Products > TAF

000
FTUS42 KJAX 010500 RRA
TAFSSI
TAF
KSSI 010541Z 0106/0206 01003KT P6SM SCT050
     FM011400 03006KT P6SM BKN035
     FM011800 06010KT P6SM BKN050=



000
FTUS42 KJAX 010500 RRA
TAFCRG
TAF
KCRG 010541Z 0106/0206 00000KT P6SM BKN060
     FM010900 01003KT 6SM BR SCT025 BKN050
     FM011300 03006KT P6SM BKN035
     FM011800 06009KT P6SM BKN040=



000
FTUS42 KJAX 010500 RRA
TAFJAX
TAF
KJAX 010541Z 0106/0206 00000KT P6SM BKN060
     FM010900 02003KT 6SM BR SCT025 BKN050
     FM011300 03005KT P6SM BKN035
     FM011800 06008KT P6SM BKN040=



000
FTUS42 KJAX 010500 RRA
TAFGNV
TAF
KGNV 010541Z 0106/0206 04003KT P6SM BKN050
     FM010800 02002KT 5SM BR SCT020 BKN050
     FM011100 00000KT 1SM BR BKN020 BKN050
     FM011300 03003KT 4SM BR BKN025 BKN050
     FM011500 05005KT P6SM SCT025 BKN050
     FM011800 05006KT P6SM BKN035=



000
FTUS42 KJAX 010200 AAA
TAFGNV
TAF AMD
KGNV 010223Z 0102/0124 04003KT P6SM SCT035
     FM010800 02002KT 5SM BR SCT050
     FM011100 00000KT 1SM BR BKN020 BKN050
     FM011300 04003KT 4SM BR BKN025 BKN050
     FM011500 06006KT P6SM SCT025
     FM011800 07007KT P6SM BKN035=



000
FTUS42 KJAX 302300
TAFGNV
TAF
KGNV 302320Z 0100/0124 04003KT P6SM SCT015 BKN025 OVC040
     FM010800 02002KT 5SM BR SCT050
     FM011100 00000KT 1SM BR BKN020 BKN050
     FM011300 04003KT 4SM BR BKN025 BKN050
     FM011500 06006KT P6SM SCT025
     FM011800 07007KT P6SM BKN035=



000
FTUS42 KJAX 302300
TAFCRG
TAF
KCRG 302320Z 0100/0124 04004KT P6SM SCT030 BKN050 BKN200
     FM010300 02002KT P6SM SCT050 SCT250
     FM010900 01003KT 6SM BR SCT025
     FM011300 04006KT P6SM BKN035
     FM011800 08008KT P6SM BKN040=



000
FTUS42 KJAX 302300
TAFJAX
TAF
KJAX 302320Z 0100/0124 04004KT P6SM SCT030 BKN050 BKN200
     FM010300 01002KT P6SM SCT050 SCT250
     FM010900 02003KT 6SM BR SCT025
     FM011300 05005KT P6SM BKN035
     FM011800 08008KT P6SM BKN040=



000
FTUS42 KJAX 302300
TAFSSI
TAF
KSSI 302320Z 0100/0124 03005KT P6SM SCT250
     FM011400 05008KT P6SM SCT030
     FM011900 08010KT P6SM SCT250=



000
FTUS42 KJAX 302100 AAA
TAFCRG
TAF AMD
KCRG 302111Z 3021/0118 03008KT P6SM SCT018 OVC050
     FM302300 04005KT P6SM SCT025 BKN050
     FM010900 35002KT P6SM SCT250
     FM011100 01004KT 6SM BR SCT007 SCT025
     FM011400 04006KT P6SM BKN025=



000
FTUS42 KJAX 301700
TAFGNV
TAF
KGNV 301729Z 3018/0118 01006KT P6SM VCSH OVC030
      TEMPO 3018/3021 OVC018
     FM010000 04008KT P6SM SCT030 BKN040
     FM010800 VRB02KT 5SM BR SCT003 SCT250
     FM011000 00000KT 1SM BR OVC002
     FM011300 04003KT 5SM BR OVC006
     FM011500 05004KT P6SM BKN018=



000
FTUS42 KJAX 301700
TAFCRG
TAF
KCRG 301729Z 3018/0118 36006KT P6SM -SHRA OVC008
     FM301830 36008KT P6SM OVC012
     FM302000 02008KT P6SM SCT012 OVC025
     FM302300 04006KT P6SM SCT025 BKN040
     FM010900 35002KT P6SM SCT250
     FM011100 01004KT 6SM BR SCT007 SCT025
     FM011400 04006KT P6SM BKN025=



000
FTUS42 KJAX 301700
TAFSSI
TAF
KSSI 301729Z 3018/0118 01010KT P6SM OVC018
     FM301900 02010KT P6SM SCT018 BKN030
     FM302200 03010KT P6SM SCT030
     FM010800 35005KT P6SM FEW250
     FM011500 04007KT P6SM SCT025=



000
FTUS42 KJAX 301700
TAFJAX
TAF
KJAX 301729Z 3018/0118 36008KT P6SM OVC012
     FM302000 02008KT P6SM SCT012 OVC025
     FM302300 04006KT P6SM SCT025 BKN040
     FM010900 35002KT P6SM SCT250
     FM011100 01004KT 6SM BR SCT007 SCT025
     FM011400 04006KT P6SM BKN025=



000
FTUS42 KJAX 301400 AAC
TAFSSI
TAF AMD
KSSI 301424Z 3014/0112 36009KT 4SM BR OVC004
     FM301530 01010KT P6SM OVC006
     FM301700 01010KT P6SM OVC012
     FM301900 02010KT P6SM SCT012 BKN025
     FM302100 03010KT P6SM SCT025 BKN040
     FM010800 35005KT P6SM FEW040=



000
FTUS42 KJAX 301300 AAB
TAFSSI
TAF AMD
KSSI 301308Z 3013/0112 36009KT 6SM BR OVC004
     FM301500 01010KT P6SM OVC007
     FM301700 01010KT P6SM OVC012
     FM301900 02010KT P6SM SCT012 BKN025
     FM302100 03010KT P6SM SCT025 BKN040
     FM010800 35005KT P6SM FEW040=



000
FTUS42 KJAX 301300 AAA
TAFGNV
TAF AMD
KGNV 301306Z 3013/0112 36005KT 4SM -SHRA BR OVC005
     FM301600 36006KT P6SM VCSH OVC007
     FM301900 01006KT P6SM VCSH OVC012
     FM302100 02007KT P6SM SCT012 OVC025
     FM302300 04008KT P6SM SCT025 BKN040
     FM010900 VRB02KT 5SM BR SCT003 SCT250=



000
FTUS42 KJAX 301300 AAA
TAFCRG
TAF AMD
KCRG 301302Z 3013/0112 34008KT 3SM RA BR OVC005
     FM301600 35006KT P6SM OVC007
     FM301800 36008KT P6SM OVC012
     FM302000 02008KT P6SM SCT015 OVC025
     FM302200 04008KT P6SM SCT025 BKN040
     FM010900 35002KT P6SM SCT250=



000
FTUS42 KJAX 301200 AAA
TAFJAX
TAF AMD
KJAX 301258Z 3013/0112 34008KT 5SM BR VCSH OVC005
     FM301600 35006KT P6SM OVC007
     FM301800 36008KT P6SM OVC012
     FM302000 02008KT P6SM SCT012 OVC025
     FM302200 04008KT P6SM SCT025 BKN040
     FM010900 35002KT P6SM SCT250=



000
FTUS42 KJAX 301200 AAA
TAFSSI
TAF AMD
KSSI 301245Z 3013/0112 36009KT 6SM BR OVC004
     FM301500 01010KT P6SM OVC015
     FM301800 02010KT P6SM SCT015 BKN025
     FM302000 03010KT P6SM SCT025 BKN040
     FM010800 35005KT P6SM FEW040=



000
FTUS42 KJAX 301100
TAFGNV
TAF
KGNV 301131Z 3012/0112 33005KT 6SM BR VCSH OVC004
     FM301400 35006KT P6SM VCSH OVC007
     FM301600 01006KT P6SM VCSH OVC015
     FM301800 02007KT P6SM SCT015 OVC025
     FM302000 04008KT P6SM SCT025 BKN040
     FM010900 VRB02KT 5SM BR SCT003 SCT250=



000
FTUS42 KJAX 301100
TAFCRG
TAF
KCRG 301131Z 3012/0112 34008KT 3SM -SHRA BR OVC005
     FM301400 35006KT P6SM OVC007
     FM301600 36008KT P6SM OVC015
     FM301800 02008KT P6SM SCT015 OVC025
     FM302000 04008KT P6SM SCT025 BKN040
     FM010900 35002KT P6SM SCT250=



000
FTUS42 KJAX 301100
TAFJAX
TAF
KJAX 301131Z 3012/0112 34008KT 2SM BR VCSH OVC005
     FM301400 35006KT P6SM OVC007
     FM301600 36008KT P6SM OVC015
     FM301800 02008KT P6SM SCT015 OVC025
     FM302000 04008KT P6SM SCT025 BKN040
     FM010900 35002KT P6SM SCT250=



000
FTUS42 KJAX 301100
TAFSSI
TAF
KSSI 301131Z 3012/0112 36009KT 6SM BR OVC006
     FM301500 01010KT P6SM OVC015
     FM301800 02010KT P6SM SCT015 BKN025
     FM302000 03010KT P6SM SCT025 BKN040
     FM010800 35005KT P6SM FEW040=



000
FTUS42 KJAX 300600 AAA
TAFSSI
TAF AMD
KSSI 300628Z 3006/0106 35009KT 6SM BR VCSH BKN004 OVC008
     FM300900 36008KT 4SM BR VCSH OVC005
     FM301500 36010KT P6SM SCT007 OVC015
     FM301800 02011KT P6SM SCT015 BKN025
     FM302000 04011KT P6SM SCT020 BKN040=



000
FTUS42 KJAX 300500 RRA
TAFSSI
TAF
KSSI 300548Z 3006/0106 36008KT 6SM BR VCSH SCT004 OVC010
     FM300900 36008KT 4SM BR VCSH OVC005
     FM301500 36010KT P6SM SCT007 OVC015
     FM301800 02011KT P6SM SCT015 BKN025
     FM302000 04011KT P6SM SCT020 BKN040=



000
FTUS42 KJAX 300500 RRA
TAFJAX
TAF
KJAX 300548Z 3006/0106 36004KT 5SM BR VCSH SCT004 BKN011
     FM300900 34004KT 3SM BR VCSH OVC004
     FM301500 36008KT P6SM VCSH SCT007 OVC015
     FM301800 02008KT P6SM SCT015 BKN025
     FM302000 04008KT P6SM SCT025 BKN040=



000
FTUS42 KJAX 300500 RRA
TAFGNV
TAF
KGNV 300548Z 3006/0106 36004KT 5SM BR VCSH BKN004 OVC008
     FM300900 34004KT 3SM BR VCSH OVC004
     FM301500 34005KT P6SM VCSH BKN008 OVC015
     FM301700 35006KT P6SM VCSH BKN015 OVC025
     FM301900 35006KT P6SM VCSH SCT020 BKN040=



000
FTUS42 KJAX 300500 RRA
TAFCRG
TAF
KCRG 300548Z 3006/0106 36004KT 6SM BR VCSH SCT005 BKN011
     FM300900 34004KT 3SM BR VCSH OVC004
     FM301500 36009KT P6SM VCSH SCT007 OVC015
     FM301800 02009KT P6SM SCT015 BKN025
     FM302000 04009KT P6SM SCT025 BKN040=



000
FTUS42 KJAX 300200 AAA
TAFGNV
TAF AMD
KGNV 300206Z 3002/3024 VRB03KT P6SM SCT006 OVC035
      TEMPO 3002/3006 3SM -SHRA BR OVC006
     FM300600 36004KT 5SM BR VCSH SCT007 OVC015
     FM300900 34004KT 3SM BR VCSH OVC004
     FM301500 02006KT P6SM VCSH OVC012
     FM301900 04008KT P6SM VCSH BKN020 OVC040=



000
FTUS42 KJAX 300100 AAA
TAFSSI
TAF AMD
KSSI 300130Z 3002/3024 03005KT 5SM -SHRA BKN004 OVC014
      TEMPO 3002/3006 3SM -SHRA BR SCT004 OVC010
     FM300600 36006KT 5SM BR VCSH SCT004 OVC010
     FM300900 34008KT 4SM BR VCSH OVC005
     FM301500 02010KT P6SM OVC015
     FM301800 05012KT P6SM BKN025=



000
FTUS42 KJAX 300100 AAA
TAFCRG
TAF AMD
KCRG 300112Z 3001/3024 VRB04KT 5SM -SHRA SCT015 OVC035
      TEMPO 3001/3004 2SM RA BR OVC015
     FM300600 36004KT 5SM BR VCSH SCT007 OVC015
     FM300900 34004KT 3SM BR VCSH OVC005
     FM301500 02006KT P6SM OVC015
     FM301800 04008KT P6SM BKN025=



000
FTUS42 KJAX 300000 AAA
TAFJAX
TAF AMD
KJAX 300053Z 3001/3024 VRB04KT 6SM -RA SCT015 OVC025
      TEMPO 3001/3005 3SM RA BR OVC015
     FM300500 36004KT 5SM BR VCSH SCT007 OVC015
     FM300900 34004KT 3SM BR VCSH OVC005
     FM301500 02006KT P6SM OVC015
     FM301800 04008KT P6SM BKN025=



000
FTUS42 KJAX 292300
TAFSSI
TAF
KSSI 292320Z 3000/3024 03005KT 6SM -SHRA SCT015 OVC025
      TEMPO 3000/3004 3SM -SHRA BR OVC015
     FM300600 36006KT 5SM BR VCSH SCT007 OVC012
     FM300900 34008KT 4SM BR VCSH OVC005
     FM301500 02010KT P6SM OVC015
     FM301800 05012KT P6SM BKN025=



000
FTUS42 KJAX 292300
TAFGNV
TAF
KGNV 292320Z 3000/3024 VRB03KT 5SM -SHRA SCT015 OVC035
      TEMPO 3000/3004 2SM SHRA BR OVC015
     FM300600 36004KT 5SM BR VCSH SCT007 OVC015
     FM300900 34004KT 3SM BR VCSH OVC004
     FM301500 02006KT P6SM VCSH OVC012
     FM301900 04008KT P6SM VCSH BKN020 OVC040=



000
FTUS42 KJAX 292300
TAFJAX
TAF
KJAX 292320Z 3000/3024 VRB04KT 3SM SHRA SCT006 OVC015
      TEMPO 3000/3001 1SM SHRA BR OVC006
     FM300500 36004KT 5SM BR VCSH SCT007 OVC015
     FM300900 34004KT 3SM BR VCSH OVC005
     FM301500 02006KT P6SM OVC015
     FM301800 04008KT P6SM BKN025=



000
FTUS42 KJAX 292300
TAFCRG
TAF
KCRG 292320Z 3000/3024 VRB04KT 3SM SHRA SCT006 OVC015
      TEMPO 3000/3002 1SM SHRA BR OVC006
     FM300600 36004KT 5SM BR VCSH SCT007 OVC015
     FM300900 34004KT 3SM BR VCSH OVC005
     FM301500 02006KT P6SM OVC015
     FM301800 04008KT P6SM BKN025=



000
FTUS42 KJAX 292200 AAB
TAFJAX
TAF AMD
KJAX 292234Z 2923/3018 VRB06KT 3SM SHRA SCT006 OVC015
      TEMPO 2923/3001 1SM SHRA OVC006
     FM300300 VRB03KT P6SM -SHRA SCT007 OVC015
     FM301100 35005KT 4SM BR VCSH OVC005
     FM301300 35006KT P6SM VCSH OVC008
     FM301500 01007KT P6SM OVC015=



000
FTUS42 KJAX 292100 AAD
TAFSSI
TAF AMD
KSSI 292146Z 2922/3018 04007KT P6SM VCSH SCT015 OVC035
      TEMPO 2923/3003 3SM -RA BR OVC015
     FM300300 03004KT 5SM RA OVC007
     FM300600 36004KT P6SM VCSH OVC007
     FM301500 02009KT P6SM OVC015=



000
FTUS42 KJAX 292100 AAC
TAFSSI
TAF AMD
KSSI 292116Z 2921/3018 04007KT 3SM SHRA SCT015 OVC025
      TEMPO 2921/2924 1SM SHRA OVC015
     FM300000 03004KT 5SM RA OVC007
     FM300600 36004KT P6SM VCSH OVC007
     FM301500 02009KT P6SM OVC015=



000
FTUS42 KJAX 292100 AAA
TAFGNV
TAF AMD
KGNV 292100Z 2921/3018 VRB03KT 6SM -SHRA SCT012 OVC025
      TEMPO 2921/3001 3SM -SHRA BR BKN012 OVC025
     FM300200 VRB03KT P6SM -RA SCT007 OVC012
     FM300700 35002KT 2SM BR VCSH OVC003
     FM301330 35004KT P6SM VCSH OVC006
     FM301500 36005KT P6SM OVC012=



000
FTUS42 KJAX 292000 AAA
TAFJAX
TAF AMD
KJAX 292055Z 2921/3018 VRB06KT 5SM SHRA SCT006 OVC015
      TEMPO 2921/2922 2SM SHRA OVC006
     FM300300 VRB03KT P6SM -SHRA SCT007 OVC015
     FM301100 35005KT 4SM BR VCSH OVC005
     FM301300 35006KT P6SM VCSH OVC008
     FM301500 01007KT P6SM OVC015=



000
FTUS42 KJAX 292000 AAA
TAFCRG
TAF AMD
KCRG 292043Z 2921/3018 VRB06KT 3SM SHRA SCT006 OVC015
      TEMPO 2921/2922 1SM SHRA OVC006
     FM300300 VRB03KT P6SM -SHRA SCT007 OVC015
     FM301100 35005KT 4SM BR VCSH OVC005
     FM301300 35006KT P6SM VCSH OVC008
     FM301500 01007KT P6SM OVC015=



000
FTUS42 KJAX 291900 AAB
TAFSSI
TAF AMD
KSSI 291931Z 2920/3018 04007KT 3SM SHRA VCTS SCT008 OVC020CB
      TEMPO 2920/2923 1SM TSRA OVC008CB
     FM292300 03004KT 5SM SHRA OVC007
     FM300600 36004KT P6SM VCSH OVC007
     FM301500 02009KT P6SM OVC015=



000
FTUS42 KJAX 291800 AAA
TAFSSI
TAF AMD
KSSI 291819Z 2918/3018 VRB03KT 6SM SHRA VCTS SCT008 OVC020CB
      TEMPO 2919/2922 1SM TSRA OVC008CB
     FM292200 03004KT 5SM SHRA OVC007
     FM300600 36004KT P6SM VCSH OVC007
     FM301500 02009KT P6SM OVC015=



000
FTUS42 KJAX 291700
TAFCRG
TAF
KCRG 291728Z 2918/3018 VRB06KT 6SM SHRA SCT006 OVC015
      TEMPO 2918/2922 3SM SHRA OVC006
     FM300300 VRB03KT P6SM -SHRA SCT007 OVC015
     FM301100 35005KT 4SM BR VCSH OVC005
     FM301300 35006KT P6SM VCSH OVC008
     FM301500 01007KT P6SM OVC015=



000
FTUS42 KJAX 291700
TAFSSI
TAF
KSSI 291728Z 2918/3018 VRB03KT 6SM SHRA VCTS SCT008 OVC020CB
      TEMPO 2918/2922 2SM TSRA OVC008CB
     FM292200 03004KT 5SM SHRA OVC007
     FM300600 36004KT P6SM VCSH OVC007
     FM301500 02009KT P6SM OVC015=



000
FTUS42 KJAX 291700
TAFJAX
TAF
KJAX 291728Z 2918/3018 VRB06KT 6SM SHRA SCT006 OVC015
      TEMPO 2918/2922 3SM SHRA OVC006
     FM300300 VRB03KT P6SM -SHRA SCT007 OVC015
     FM301100 35005KT 4SM BR VCSH OVC005
     FM301300 35006KT P6SM VCSH OVC008
     FM301500 01007KT P6SM OVC015=



000
FTUS42 KJAX 291700
TAFGNV
TAF
KGNV 291728Z 2918/3018 VRB03KT 5SM SHRA SCT006 OVC015
      TEMPO 2918/2922 2SM SHRA OVC006
     FM300200 VRB03KT P6SM -SHRA SCT007 OVC012
     FM300700 35002KT 2SM BR VCSH OVC003
     FM301330 35004KT P6SM VCSH OVC006
     FM301500 36005KT P6SM OVC012=



000
FTUS42 KJAX 291600 AAD
TAFJAX
TAF AMD
KJAX 291647Z 2917/3012 VRB06KT 6SM SHRA VCTS SCT006 OVC035CB
      TEMPO 2917/2919 VRB10G20KT 1SM SHRA OVC006
     FM291900 VRB06KT 3SM SHRA VCTS SCT010CB OVC030
      TEMPO 2919/2923 1SM +TSRA BKN010CB
     FM300000 04004KT 5SM SHRA VCTS SCT005 OVC010CB=



000
FTUS42 KJAX 291600 AAD
TAFGNV
TAF AMD
KGNV 291610Z 2916/3012 VRB04KT 5SM SHRA SCT008 OVC018
      TEMPO 2917/2921 2SM SHRA OVC008
     FM300000 23004KT 5SM SHRA VCTS SCT005 OVC015CB=



000
FTUS42 KJAX 291500 AAC
TAFJAX
TAF AMD
KJAX 291527Z 2915/3012 VRB06KT 6SM SHRA SCT006 OVC035
      TEMPO 2915/2919 VRB10G20KT 1SM SHRA OVC006
     FM291900 VRB06KT 3SM SHRA VCTS SCT010CB OVC030
      TEMPO 2919/2923 1SM +TSRA BKN010CB
     FM300000 04004KT 5SM SHRA VCTS SCT005 OVC010CB=



000
FTUS42 KJAX 291400 AAB
TAFCRG
TAF AMD
KCRG 291445Z 2915/3012 VRB06KT 6SM SHRA SCT006 OVC035
      TEMPO 2915/2919 VRB10G20KT 2SM SHRA OVC006
     FM291900 VRB06KT 3SM SHRA VCTS SCT010CB OVC030
      TEMPO 2919/2923 1SM +TSRA BKN010CB
     FM300000 04004KT 5SM SHRA VCTS SCT005 OVC010CB=



000
FTUS42 KJAX 291400 AAB
TAFJAX
TAF AMD
KJAX 291444Z 2915/3012 VRB06KT 6SM SHRA SCT006 OVC035
      TEMPO 2915/2919 VRB10G20KT 2SM SHRA OVC006
     FM291900 VRB06KT 3SM SHRA VCTS SCT010CB OVC030
      TEMPO 2919/2923 1SM +TSRA BKN010CB
     FM300000 04004KT 5SM SHRA VCTS SCT005 OVC010CB=



000
FTUS42 KJAX 291400 AAC
TAFGNV
TAF AMD
KGNV 291441Z 2915/3012 VRB05KT 6SM SHRA SCT006 BKN035
      TEMPO 2915/2917 3SM SHRA OVC006
     FM291700 21006KT 3SM SHRA SCT010 OVC020
      TEMPO 2917/2921 2SM TSRA BKN010CB
     FM300000 23004KT 5SM SHRA VCTS SCT005 OVC015CB=



000
FTUS42 KJAX 291400 AAA
TAFSSI
TAF AMD
KSSI 291440Z 2915/3012 06006KT P6SM -SHRA SCT008 BKN070
     FM291700 VRB06KT 3SM SHRA BKN010 OVC020
      TEMPO 2919/2923 2SM TSRA BKN010CB
     FM300000 06008KT 5SM SHRA VCTS SCT005 OVC015CB=



000
FTUS42 KJAX 291300 AAA
TAFCRG
TAF AMD
KCRG 291326Z 2913/3012 VRB06KT 6SM SHRA VCTS SCT008 OVC025CB
      TEMPO 2915/2919 3SM SHRA OVC008
     FM291900 VRB06KT 3SM SHRA VCTS SCT010CB OVC030
      TEMPO 2919/2923 1SM +TSRA BKN010CB
     FM300000 04004KT 5SM SHRA VCTS SCT005 OVC010CB=



000
FTUS42 KJAX 291300 AAA
TAFJAX
TAF AMD
KJAX 291325Z 2913/3012 VRB06KT 6SM SHRA VCTS SCT008 OVC025CB
      TEMPO 2915/2919 3SM SHRA OVC008
     FM291900 VRB06KT 3SM SHRA VCTS SCT010CB OVC030
      TEMPO 2919/2923 1SM +TSRA BKN010CB
     FM300000 04004KT 5SM SHRA VCTS SCT005 OVC010CB=



000
FTUS42 KJAX 291300 AAB
TAFGNV
TAF AMD
KGNV 291301Z 2913/3012 VRB05KT 6SM SHRA VCTS SCT003 BKN020CB
      TEMPO 2913/2915 VRB10G20KT 3SM SHRA OVC003
     FM291700 21006KT 3SM SHRA SCT010 OVC020
      TEMPO 2917/2921 2SM TSRA BKN010CB
     FM300000 23004KT 5SM SHRA VCTS SCT005 OVC015CB=



000
FTUS42 KJAX 291100 AAA
TAFGNV
TAF AMD
KGNV 291155Z 2912/3012 VRB05KT 6SM SHRA VCTS SCT010CB BKN020
      TEMPO 2912/2915 VRB10G20KT 3SM SHRA OVC010
     FM291700 21006KT 3SM SHRA SCT010 OVC020
      TEMPO 2917/2921 2SM TSRA BKN010CB
     FM300000 23004KT 5SM SHRA VCTS SCT005 OVC015CB=



000
FTUS42 KJAX 291100
TAFJAX
TAF
KJAX 291127Z 2912/3012 07004KT P6SM VCSH SCT008 OVC035
     FM291400 13006KT 6SM SHRA VCSH BKN025 OVC040
     FM291900 VRB06KT 3SM SHRA VCTS SCT010CB OVC030
      TEMPO 2919/2923 1SM +TSRA BKN010CB
     FM300000 04004KT 5SM SHRA VCTS SCT005 OVC010CB=



000
FTUS42 KJAX 291100
TAFSSI
TAF
KSSI 291127Z 2912/3012 05006KT P6SM -SHRA SCT003 OVC035
      TEMPO 2912/2914 OVC003
     FM291400 09007KT 6SM SHRA VCTS SCT010CB BKN020
     FM291600 12008KT 3SM SHRA BKN010 OVC020
      TEMPO 2919/2923 2SM TSRA BKN010CB
     FM300000 06008KT 5SM SHRA VCTS SCT005 OVC015CB=



000
FTUS42 KJAX 291100
TAFGNV
TAF
KGNV 291127Z 2912/3012 VRB05KT 6SM SHRA VCTS SCT010CB BKN020
      TEMPO 2912/2915 3SM SHRA OVC010
     FM291700 21006KT 3SM SHRA SCT010 OVC020
      TEMPO 2917/2921 2SM TSRA BKN010CB
     FM300000 23004KT 5SM SHRA VCTS SCT005 OVC015CB=



000
FTUS42 KJAX 291100
TAFCRG
TAF
KCRG 291127Z 2912/3012 07004KT P6SM VCSH SCT008 OVC035
     FM291400 13006KT 6SM SHRA VCSH BKN025 OVC040
     FM291900 VRB06KT 3SM SHRA VCTS SCT010CB OVC030
      TEMPO 2919/2923 1SM +TSRA BKN010CB
     FM300000 04004KT 5SM SHRA VCTS SCT005 OVC010CB=



000
FTUS42 KJAX 291100 AAB
TAFSSI
TAF AMD
KSSI 291104Z 2911/3006 04006KT P6SM VCSH SCT003 OVC015
      TEMPO 2911/2913 1SM +SHRA OVC003
     FM291300 09007KT 6SM SHRA VCTS SCT010CB BKN020
     FM291600 12008KT 5SM TSRA BKN010CB OVC020
     FM300000 06008KT 3SM SHRA VCTS SCT005 OVC015CB=



000
FTUS42 KJAX 291000 AAA
TAFSSI
TAF AMD
KSSI 291008Z 2910/3006 04006KT P6SM VCSH SCT008 BKN020
      TEMPO 2910/2912 1SM +SHRA BKN008
     FM291300 09007KT 6SM SHRA VCTS SCT010CB BKN020
     FM291600 12008KT 5SM TSRA BKN010CB OVC020
     FM300000 06008KT 3SM SHRA VCTS SCT005 OVC015CB=



000
FTUS42 KJAX 290900 AAB
TAFGNV
TAF AMD
KGNV 290954Z 2910/3006 02004KT P6SM VCSH SCT008 BKN035
     FM291300 17005KT 6SM SHRA VCTS SCT010CB BKN020
     FM291700 21006KT 5SM TSRA BKN010CB OVC020
     FM300000 23004KT 4SM SHRA VCTS SCT005 OVC015CB=



000
FTUS42 KJAX 290900 AAB
TAFCRG
TAF AMD
KCRG 290947Z 2910/3006 08003KT P6SM VCSH SCT010 BKN035
     FM291400 16006KT 6SM SHRA VCTS SCT010CB BKN020
     FM291900 21006KT 5SM TSRA BKN010CB OVC020
     FM300000 05004KT 3SM SHRA VCTS SCT005 OVC010CB=



000
FTUS42 KJAX 290900 AAA
TAFJAX
TAF AMD
KJAX 290946Z 2910/3006 07004KT P6SM VCSH SCT008 OVC035
     FM291400 16006KT 6SM SHRA VCTS SCT010CB BKN020
     FM291900 21006KT 5SM TSRA BKN010CB OVC020
     FM300000 04004KT 3SM SHRA VCTS SCT005 OVC010CB=



000
FTUS42 KJAX 290800 AAA
TAFGNV
TAF AMD
KGNV 290840Z 2909/3006 02004KT P6SM VCSH SCT001 BKN030
      TEMPO 2909/2912 5SM BR BKN001
     FM291300 17005KT 6SM SHRA VCTS SCT010CB BKN020
     FM291700 21006KT 5SM TSRA BKN010CB OVC020
     FM300000 23004KT 4SM SHRA VCTS SCT005 OVC015CB=



000
FTUS42 KJAX 290600 AAB
TAFJAX
TAF AMD
KJAX 290655Z 2907/3006 22008KT 3SM SHRA VCTS SCT005 BKN015CB
      TEMPO 2907/2909 VRB10G15KT 1SM +TSRA BKN005 OVC010CB
     FM291000 07004KT P6SM -RA BKN008 OVC015
     FM291400 16006KT 6SM SHRA VCTS SCT010CB BKN020
     FM291900 21006KT 5SM TSRA BKN010CB OVC020
     FM300000 04004KT 3SM SHRA VCTS SCT005 OVC010CB=



000
FTUS42 KJAX 290600 AAA
TAFCRG
TAF AMD
KCRG 290603Z 2906/3006 05002KT P6SM VCSH SCT015 BKN200
      TEMPO 2906/2908 3SM SHRA BKN015
     FM290900 08003KT P6SM VCSH SCT010 BKN020
     FM291400 16006KT 6SM SHRA VCTS SCT010CB BKN020
     FM291900 21006KT 5SM TSRA BKN010CB OVC020
     FM300000 05004KT 3SM SHRA VCTS SCT005 OVC010CB=



000
FTUS42 KJAX 290600 AAA
TAFJAX
TAF AMD
KJAX 290601Z 2906/3006 03004KT P6SM -RA VCTS SCT008 BKN015CB
      TEMPO 2907/2909 VRB10G15KT 3SM SHRA BKN008
     FM291000 07004KT P6SM -RA BKN008 OVC015
     FM291400 16006KT 6SM SHRA VCTS SCT010CB BKN020
     FM291900 21006KT 5SM TSRA BKN010CB OVC020
     FM300000 04004KT 3SM SHRA VCTS SCT005 OVC010CB=



000
FTUS42 KJAX 290500 RRA
TAFCRG
TAF
KCRG 290542Z 2906/3006 05002KT P6SM SCT015 BKN200
     FM290900 08003KT P6SM VCSH SCT010 BKN020
     FM291400 16006KT 6SM SHRA VCTS SCT010CB BKN020
     FM291900 21006KT 5SM TSRA BKN010CB OVC020
     FM300000 05004KT 3SM SHRA VCTS SCT005 OVC010CB=



000
FTUS42 KJAX 290500 RRA
TAFJAX
TAF
KJAX 290542Z 2906/3006 03004KT P6SM -RA SCT008 BKN015
      TEMPO 2907/2909 VRB10G15KT 3SM SHRA BKN008
     FM291000 07004KT P6SM -RA BKN008 OVC015
     FM291400 16006KT 6SM SHRA VCTS SCT010CB BKN020
     FM291900 21006KT 5SM TSRA BKN010CB OVC020
     FM300000 04004KT 3SM SHRA VCTS SCT005 OVC010CB=



000
FTUS42 KJAX 290500 RRA
TAFSSI
TAF
KSSI 290542Z 2906/3006 04006KT P6SM VCSH SCT008 BKN020
      TEMPO 2908/2912 -SHRA BKN008
     FM291300 09007KT 6SM SHRA VCTS SCT010CB BKN020
     FM291600 12008KT 5SM TSRA BKN010CB OVC020
     FM300000 06008KT 3SM SHRA VCTS SCT005 OVC015CB=



000
FTUS42 KJAX 290500 RRA
TAFGNV
TAF
KGNV 290542Z 2906/3006 06002KT P6SM -RA SCT015 BKN030
      TEMPO 2907/2909 3SM SHRA BR BKN010
     FM291300 17005KT 6SM SHRA VCTS SCT010CB BKN020
     FM291700 21006KT 5SM TSRA BKN010CB OVC020
     FM300000 23004KT 4SM SHRA VCTS SCT005 OVC015CB=



000
FTUS42 KJAX 290200 AAD
TAFGNV
TAF AMD
KGNV 290258Z 2903/2924 08006KT P6SM -SHRA SCT025 BKN120
      TEMPO 2903/2906 VRB10G25KT 2SM +TSRA BKN015CB
     FM290600 06002KT P6SM -RA SCT015 BKN030
     FM291300 17005KT 6SM SHRA VCTS SCT010CB BKN020
     FM291700 21006KT 5SM TSRA BKN010CB OVC020=



000
FTUS42 KJAX 290200 AAC
TAFGNV
TAF AMD
KGNV 290242Z 2903/2924 08006KT P6SM -SHRA SCT025 BKN120
      TEMPO 2903/2906 VRB10G25KT 2SM +TSRA BKN015CB
     FM290600 06002KT P6SM -RA SCT015 BKN030
     FM291300 17005KT 6SM SHRA VCTS SCT010CB BKN020
     FM291700 21006KT 5SM TSRA BKN010CB OVC020=



000
FTUS42 KJAX 290200 AAB
TAFGNV
TAF AMD
KGNV 290217Z 2902/2924 08006KT P6SM -SHRA SCT025 BKN120
      TEMPO 2902/2906 2SM TSRA BKN010CB
     FM290600 06002KT P6SM -RA SCT015 BKN030
     FM291300 17005KT 6SM SHRA VCTS SCT010CB BKN020
     FM291700 21006KT 5SM TSRA BKN010CB OVC020=



000
FTUS42 KJAX 290200 AAC
TAFSSI
TAF AMD
KSSI 290216Z 2902/2924 04008KT P6SM SCT008 BKN040
      TEMPO 2902/2906 BKN008
     FM290600 08006KT P6SM BKN008 BKN020
     FM291300 15007KT 6SM SHRA VCTS SCT010CB BKN020
     FM291600 12008KT 5SM TSRA BKN010CB OVC020=



000
FTUS42 KJAX 290100 AAB
TAFSSI
TAF AMD
KSSI 290125Z 2901/2924 04008KT P6SM BKN008 OVC025
     FM291300 15007KT 6SM SHRA VCTS SCT010CB BKN020
     FM291600 12008KT 5SM TSRA BKN010CB OVC020=



000
FTUS42 KJAX 290100 AAA
TAFGNV
TAF AMD
KGNV 290124Z 2901/2924 08006KT P6SM -SHRA SCT025 BKN120
      TEMPO 2901/2904 2SM TSRA BKN010CB
     FM290400 06002KT P6SM -RA SCT015 BKN030
     FM291300 17005KT 6SM SHRA VCTS SCT010CB BKN020
     FM291700 21006KT 5SM TSRA BKN010CB OVC020=



000
FTUS42 KJAX 290000 AAA
TAFSSI
TAF AMD
KSSI 290023Z 2900/2924 04008KT P6SM VCSH SCT010 BKN040
      TEMPO 2900/2903 BKN008
     FM290300 04006KT P6SM BKN008 BKN020
     FM290700 08006KT P6SM BKN008 OVC015
     FM291300 15007KT 6SM SHRA VCTS SCT010CB BKN020
     FM291600 12008KT 5SM TSRA BKN010CB OVC020=



000
FTUS42 KJAX 282300 RRA
TAFSSI
TAF
KSSI 282345Z 2900/2924 04008KT P6SM VCSH SCT010 BKN040
     FM290300 04006KT P6SM BKN020
     FM290700 08006KT P6SM BKN008 OVC015
     FM291300 15007KT 6SM SHRA VCTS SCT010CB BKN020
     FM291600 12008KT 5SM TSRA BKN010CB OVC020=



000
FTUS42 KJAX 282300 RRA
TAFGNV
TAF
KGNV 282345Z 2900/2924 08006KT P6SM -SHRA SCT025 BKN120
      TEMPO 2900/2902 4SM SHRA BKN010
     FM290200 07003KT P6SM VCSH SCT010 BKN200
     FM290400 06002KT 5SM BR SCT008 BKN020
     FM291300 17005KT 6SM SHRA VCTS SCT010CB BKN020
     FM291700 21006KT 5SM TSRA BKN010CB OVC020=



000
FTUS42 KJAX 282300 RRA
TAFCRG
TAF
KCRG 282345Z 2900/2924 04006KT P6SM SCT010 SCT025 BKN250
     FM290400 05002KT P6SM SCT015 BKN200
     FM290900 08003KT P6SM SCT010 BKN020
     FM291400 16006KT 6SM SHRA VCTS SCT010CB BKN020
     FM291900 21006KT 5SM TSRA BKN010CB OVC020=



000
FTUS42 KJAX 282300 RRA
TAFJAX
TAF
KJAX 282345Z 2900/2924 05005KT P6SM SCT015 SCT020 BKN250
     FM290400 05002KT P6SM SCT008 BKN015
     FM291000 08003KT P6SM BKN008 OVC015
     FM291400 16006KT 6SM SHRA VCTS SCT010CB BKN020
     FM291900 21006KT 5SM TSRA BKN010CB OVC020=



000
FTUS42 KJAX 282200 AAB
TAFGNV
TAF AMD
KGNV 282218Z 2822/2918 08006KT P6SM -SHRA VCTS SCT025CB BKN200
      TEMPO 2822/2824 2SM TSRA SCT015CB OVC025
     FM290200 07003KT P6SM VCSH BKN015 OVC200
     FM290500 06002KT 4SM BR VCSH OVC007
     FM291400 17005KT 4SM SHRA OVC015=



000
FTUS42 KJAX 282200 AAB
TAFCRG
TAF AMD
KCRG 282203Z 2822/2918 04007KT P6SM VCSH SCT025 BKN060 BKN200
      TEMPO 2822/2824 2SM SHRA BKN010
     FM290000 06003KT P6SM VCSH SCT015 BKN030
     FM290400 05002KT P6SM BKN015
     FM291000 11003KT P6SM VCSH OVC010
     FM291500 15005KT 6SM SHRA OVC015=



000
FTUS42 KJAX 282100 AAA
TAFGNV
TAF AMD
KGNV 282135Z 2822/2918 08006KT P6SM -SHRA VCTS SCT025CB BKN200
      TEMPO 2822/2824 3SM SHRA SCT015 OVC025
     FM290200 07003KT P6SM VCSH BKN015 OVC200
     FM290500 06002KT 4SM BR VCSH OVC007
     FM291400 17005KT 4SM SHRA OVC015=



000
FTUS42 KJAX 282100 AAC
TAFSSI
TAF AMD
KSSI 282121Z 2821/2918 06010KT P6SM VCSH SCT015 BKN035 BKN200
      TEMPO 2821/2824 BKN015
     FM290000 05005KT P6SM VCSH SCT010 BKN040
     FM290300 04004KT P6SM BKN020
     FM290700 05003KT P6SM VCSH OVC007
     FM291600 10006KT 6SM SHRA OVC015=



000
FTUS42 KJAX 281900 AAB
TAFSSI
TAF AMD
KSSI 281947Z 2820/2918 06010KT P6SM VCSH SCT015 BKN035 BKN200
     FM290000 05005KT P6SM VCSH SCT010 BKN040
     FM290300 04004KT P6SM BKN020
     FM290700 05003KT P6SM VCSH OVC007
     FM291600 10006KT 6SM SHRA OVC015=



000
FTUS42 KJAX 281900 AAA
TAFCRG
TAF AMD
KCRG 281946Z 2820/2918 07007KT P6SM VCSH SCT035 BKN060 BKN200
     FM290000 06003KT P6SM SCT015 BKN035
     FM290400 05002KT P6SM BKN015
     FM291000 11003KT P6SM VCSH OVC010
     FM291500 15005KT 6SM SHRA OVC015=



000
FTUS42 KJAX 281900 AAA
TAFJAX
TAF AMD
KJAX 281946Z 2820/2918 06008KT P6SM VCSH SCT035 BKN060 BKN200
     FM290000 05003KT P6SM SCT015 BKN035
     FM290400 06002KT P6SM BKN015
     FM291000 08003KT P6SM VCSH BKN008
     FM291500 15005KT 6SM SHRA OVC015=



000
FTUS42 KJAX 281800 AAA
TAFSSI
TAF AMD
KSSI 281800Z 2818/2918 05011KT P6SM VCSH SCT015 OVC200
     FM282000 06010KT P6SM VCTS SCT015CB BKN035 BKN200
     FM290000 05005KT P6SM VCSH SCT010 BKN040
     FM290300 04004KT P6SM BKN020
     FM290700 05003KT P6SM VCSH OVC007
     FM291600 10006KT 6SM SHRA OVC015=



000
FTUS42 KJAX 281700
TAFGNV
TAF
KGNV 281739Z 2818/2918 08006KT P6SM VCTS SCT020CB BKN200
      TEMPO 2818/2822 3SM TSRA BR BKN010 OVC020CB
     FM290200 07003KT P6SM VCSH BKN015 OVC200
     FM290500 06002KT 4SM BR VCSH OVC007
     FM291400 17005KT 4SM SHRA OVC015=



000
FTUS42 KJAX 281700
TAFSSI
TAF
KSSI 281739Z 2818/2918 05011KT P6SM VCSH BKN015 OVC200
     FM282000 06010KT P6SM VCTS SCT015CB BKN035 BKN200
     FM290000 05005KT P6SM VCSH SCT010 BKN040
     FM290300 04004KT P6SM BKN020
     FM290700 05003KT P6SM VCSH OVC007
     FM291600 10006KT 6SM SHRA OVC015=



000
FTUS42 KJAX 281700
TAFJAX
TAF
KJAX 281739Z 2818/2918 07008KT P6SM VCSH SCT015 BKN025 BKN250
     FM282100 06007KT P6SM VCTS SCT035CB BKN060 BKN200
     FM290000 05003KT P6SM SCT015 BKN035
     FM290400 06002KT P6SM BKN015
     FM291000 08003KT P6SM VCSH BKN008
     FM291500 15005KT 6SM SHRA OVC015=



000
FTUS42 KJAX 281700
TAFCRG
TAF
KCRG 281739Z 2818/2918 07008KT P6SM VCSH SCT015 BKN025 BKN250
     FM282100 06007KT P6SM VCTS SCT035CB BKN060 BKN200
     FM290000 06003KT P6SM SCT015 BKN035
     FM290400 05002KT P6SM BKN015
     FM291000 11003KT P6SM VCSH OVC010
     FM291500 15005KT 6SM SHRA OVC015=



000
FTUS42 KJAX 281500 AAA
TAFCRG
TAF AMD
KCRG 281510Z 2815/2912 07007KT P6SM VCSH SCT020 BKN035
     FM281700 08008KT P6SM VCSH SCT035 BKN200
     FM290000 07002KT P6SM SCT010=



000
FTUS42 KJAX 281400 AAA
TAFSSI
TAF AMD
KSSI 281421Z 2814/2912 04009KT P6SM BKN008 OVC015
     FM281600 05010KT P6SM VCSH BKN015 OVC200
     FM281900 07010KT P6SM VCSH BKN030 BKN200
     FM290000 07005KT P6SM SCT010=



000
FTUS42 KJAX 281300 AAA
TAFGNV
TAF AMD
KGNV 281321Z 2813/2912 06005KT 5SM BR OVC006
     FM281500 07006KT P6SM VCSH BKN015 OVC060
     FM281700 10006KT P6SM VCTS BKN020CB BKN200
      TEMPO 2819/2823 3SM TSRA BR BKN010 OVC020CB
     FM290100 10003KT P6SM VCSH SCT015 BKN040 OVC200=



000
FTUS42 KJAX 281200 AAA
TAFJAX
TAF AMD
KJAX 281230Z 2813/2912 03007KT 6SM BR OVC005
     FM281400 04007KT P6SM VCSH OVC009
     FM281500 05007KT P6SM VCSH BKN015
     FM281700 08008KT P6SM SCT035 BKN200
     FM290000 07002KT P6SM SCT010=



000
FTUS42 KJAX 281100
TAFGNV
TAF
KGNV 281120Z 2812/2912 04004KT 5SM BR OVC005
     FM281400 09006KT P6SM VCSH SCT010 BKN020
     FM281600 11006KT P6SM VCTS SCT035CB BKN200
     FM290000 10003KT P6SM SCT010=



000
FTUS42 KJAX 281100
TAFSSI
TAF
KSSI 281120Z 2812/2912 03009KT P6SM VCSH OVC007
     FM281400 07009KT P6SM VCSH SCT010 BKN020
     FM281900 09010KT P6SM SCT035 BKN200
     FM290000 07005KT P6SM SCT010=



000
FTUS42 KJAX 281100
TAFCRG
TAF
KCRG 281120Z 2812/2912 03007KT P6SM VCSH OVC006
     FM281300 07007KT P6SM VCSH SCT010 BKN020
     FM281700 08008KT P6SM SCT035 BKN200
     FM290000 07002KT P6SM SCT010=



000
FTUS42 KJAX 281100
TAFJAX
TAF
KJAX 281120Z 2812/2912 03007KT P6SM VCSH OVC006
     FM281400 07007KT P6SM VCSH SCT010 BKN020
     FM281700 08008KT P6SM SCT035 BKN200
     FM290000 07002KT P6SM SCT010=



000
FTUS42 KJAX 281000 AAA
TAFSSI
TAF AMD
KSSI 281020Z 2810/2906 03009KT P6SM VCSH OVC008
     FM281400 07009KT P6SM VCSH SCT010 BKN020
     FM281900 09010KT P6SM SCT035 BKN200
     FM290000 07005KT P6SM SCT010=



000
FTUS42 KJAX 281000 AAA
TAFGNV
TAF AMD
KGNV 281017Z 2810/2906 04004KT 5SM BR OVC005
     FM281400 09006KT P6SM VCSH SCT010 BKN020
     FM281600 11006KT P6SM VCTS SCT035CB BKN200
     FM290000 10003KT P6SM SCT010=



000
FTUS42 KJAX 281000 AAA
TAFCRG
TAF AMD
KCRG 281016Z 2810/2906 03007KT P6SM VCSH OVC006
     FM281300 07007KT P6SM VCSH SCT010 BKN020
     FM281700 08008KT P6SM SCT035 BKN200
     FM290000 07002KT P6SM SCT010=



000
FTUS42 KJAX 281000 AAA
TAFJAX
TAF AMD
KJAX 281013Z 2810/2906 03007KT P6SM VCSH OVC006
     FM281400 07007KT P6SM VCSH SCT010 BKN020
     FM281700 08008KT P6SM SCT035 BKN200
     FM290000 07002KT P6SM SCT010=



    US Dept of Commerce
    National Oceanic and Atmospheric Administration
    National Weather Service
    1325 East West Highway
    Silver Spring, MD 20910
    Page Author: NWS Internet Services Team
Disclaimer
Information Quality
Credits
Glossary
Privacy Policy
Freedom of Information Act (FOIA)
About Us
Career Opportunities